.
WxDataArchive / Data Records for 2010-04-27
2010-04-26 April 2010 2010-04-28

Data Records for Tuesday, 27 April 2010

Time	Temp	Chill	HIndex	Humid	Dewpt	 Wind 	HiWind	WindDir	Rain 	Barom 
-----	----	-----	------	-----	-----	------	------	-------	-----	----- 
00:00	44.8	44.8	44.8	74	37.0	0	0	---	0.00	29.607 
00:05	44.8	44.8	44.8	74	37.0	0	0	---	0.00	29.607 
00:10	44.9	44.9	44.9	76	37.8	0	0	---	0.00	29.607 
00:15	44.9	44.9	44.9	76	37.8	0	0	---	0.00	29.598 
00:20	44.8	44.8	44.8	77	38.0	0	0	---	0.00	29.598 
00:25	44.8	44.8	44.8	77	38.0	0	0	---	0.00	29.598 
00:30	44.5	44.5	44.5	79	38.4	0	0	---	0.00	29.596 
00:35	44.3	44.3	44.3	79	38.2	0	0	---	0.00	29.596 
00:40	44.1	44.1	44.1	80	38.3	0	0	---	0.00	29.596 
00:45	43.9	43.9	43.9	81	38.5	0	0	---	0.00	29.601 
00:50	43.8	43.8	43.8	81	38.4	0	0	---	0.00	29.601 
00:55	43.6	43.6	43.6	81	38.2	0	0	---	0.00	29.601 
01:00	43.3	43.3	43.3	81	37.9	0	0	---	0.00	29.603 
01:05	43.2	43.2	43.2	82	38.1	0	0	---	0.00	29.603 
01:10	42.9	42.9	42.9	82	37.8	0	0	---	0.00	29.603 
01:15	42.9	42.9	42.9	84	38.4	0	0	---	0.00	29.604 
01:20	42.9	42.9	42.9	82	37.8	0	2	45	0.00	29.604 
01:25	44.2	44.2	44.2	72	35.8	1	4	68	0.00	29.604 
01:30	46.0	46.0	46.0	65	34.9	1	4	90	0.00	29.605 
01:35	47.4	47.4	47.4	60	34.2	0	2	90	0.00	29.605 
01:40	48.2	48.2	48.2	58	34.1	1	3	90	0.00	29.605 
01:45	48.6	48.6	48.6	57	34.1	1	3	112	0.00	29.604 
01:50	48.8	48.8	48.8	57	34.3	1	2	112	0.00	29.604 
01:55	48.8	48.8	48.8	56	33.8	0	3	90	0.00	29.604 
02:00	48.8	48.8	48.8	57	34.3	1	3	90	0.00	29.597 
02:05	48.6	48.6	48.6	55	33.2	0	3	90	0.00	29.597 
02:10	48.5	48.5	48.5	56	33.5	0	2	90	0.00	29.597 
02:15	48.2	48.2	48.2	55	32.8	0	1	90	0.00	29.598 
02:20	48.2	48.2	48.2	56	33.2	0	1	90	0.00	29.598 
02:25	48.0	48.0	48.0	56	33.1	0	1	90	0.00	29.598 
02:30	47.9	47.9	47.9	56	33.0	0	0	---	0.00	29.596 
02:35	47.7	47.7	47.7	56	32.8	0	0	---	0.00	29.596 
02:40	47.4	47.4	47.4	57	32.9	0	0	---	0.00	29.596 
02:45	47.1	47.1	47.1	57	32.7	0	0	---	0.00	29.595 
02:50	46.8	46.8	46.8	57	32.4	0	0	---	0.00	29.595 
02:55	46.7	46.7	46.7	59	33.1	0	0	---	0.00	29.595 
03:00	46.4	46.4	46.4	60	33.3	0	0	---	0.00	29.594 
03:05	46.1	46.1	46.1	60	33.0	0	0	---	0.00	29.594 
03:10	45.7	45.7	45.7	61	33.0	0	0	---	0.00	29.594 
03:15	45.4	45.4	45.4	61	32.7	0	0	---	0.00	29.593 
03:20	45.1	45.1	45.1	62	32.9	0	0	---	0.00	29.593 
03:25	44.8	44.8	44.8	63	33.0	0	0	---	0.00	29.593 
03:30	44.5	44.5	44.5	64	33.1	0	0	---	0.00	29.598 
03:35	44.2	44.2	44.2	65	33.2	0	0	---	0.00	29.598 
03:40	43.9	43.9	43.9	65	32.9	0	0	---	0.00	29.598 
03:45	44.1	44.1	44.1	62	31.9	0	1	90	0.00	29.600 
03:50	44.5	44.5	44.5	61	31.9	0	1	90	0.00	29.600 
03:55	44.6	44.6	44.6	62	32.4	0	0	---	0.00	29.600 
04:00	44.8	44.8	44.8	62	32.6	0	1	90	0.00	29.606 
04:05	44.8	44.8	44.8	59	31.4	0	2	90	0.00	29.606 
04:10	45.2	45.2	45.2	58	31.3	0	3	90	0.00	29.606 
04:15	45.5	45.5	45.5	56	30.7	0	2	90	0.00	29.609 
04:20	45.8	45.8	45.8	55	30.6	0	2	90	0.00	29.609 
04:25	45.8	45.8	45.8	55	30.6	0	2	90	0.00	29.609 
04:30	45.8	45.8	45.8	55	30.6	0	1	90	0.00	29.611 
04:35	45.8	45.8	45.8	57	31.4	0	2	90	0.00	29.611 
04:40	45.5	45.5	45.5	57	31.2	0	1	90	0.00	29.611 
04:45	45.4	45.4	45.4	57	31.1	0	3	45	0.00	29.620 
04:50	45.2	45.2	45.2	56	30.4	1	3	112	0.00	29.620 
04:55	45.1	45.1	45.1	57	30.8	0	3	112	0.00	29.620 
05:00	44.8	44.8	44.8	57	30.5	0	2	112	0.00	29.622 
05:05	44.5	44.5	44.5	57	30.2	0	3	112	0.00	29.622 
05:10	44.3	44.3	44.3	57	30.0	1	3	112	0.00	29.622 
05:15	44.1	44.1	44.1	57	29.9	1	3	90	0.00	29.623 
05:20	43.9	43.9	43.9	57	29.7	1	3	90	0.00	29.623 
05:25	43.6	43.6	43.6	58	29.8	1	3	90	0.00	29.623 
05:30	43.6	43.6	43.6	58	29.8	1	3	90	0.00	29.627 
05:35	43.5	43.5	43.5	58	29.7	0	3	90	0.00	29.627 
05:40	43.5	43.5	43.5	57	29.3	0	3	90	0.00	29.627 
05:45	43.3	43.3	43.3	58	29.5	1	2	68	0.00	29.634 
05:50	43.1	43.1	43.1	59	29.8	0	4	90	0.00	29.634 
05:55	42.9	42.9	42.9	59	29.6	1	3	90	0.00	29.634 
06:00	42.8	42.8	42.8	58	29.1	1	5	90	0.00	29.639 
06:05	42.8	42.8	42.8	58	29.1	1	4	90	0.00	29.639 
06:10	42.6	42.6	42.6	58	28.9	1	3	90	0.00	29.639 
06:15	42.5	42.5	42.5	58	28.8	1	3	112	0.00	29.646 
06:20	42.3	42.3	42.3	59	29.0	1	3	68	0.00	29.646 
06:25	42.2	42.2	42.2	59	28.9	1	4	112	0.00	29.646 
06:30	42.1	42.1	42.1	60	29.2	0	2	45	0.00	29.654 
06:35	41.8	41.8	41.8	61	29.4	1	4	112	0.00	29.654 
06:40	41.6	41.6	41.6	61	29.2	1	6	112	0.00	29.654 
06:45	41.5	41.5	41.5	62	29.5	0	3	112	0.00	29.657 
06:50	41.2	41.2	41.2	63	29.6	1	5	112	0.00	29.657 
06:55	41.1	41.1	41.1	63	29.5	0	3	68	0.00	29.657 
07:00	40.9	40.9	40.9	63	29.3	1	4	112	0.00	29.663 
07:05	40.9	40.9	40.9	63	29.3	1	5	90	0.00	29.663 
07:10	40.9	40.9	40.9	63	29.3	1	3	90	0.00	29.663 
07:15	40.9	40.9	40.9	63	29.3	1	4	68	0.00	29.676 
07:20	41.1	41.1	41.1	63	29.5	1	5	68	0.00	29.676 
07:25	41.2	41.2	41.2	63	29.6	2	6	112	0.00	29.676 
07:30	41.2	41.2	41.2	63	29.6	0	4	22	0.00	29.688 
07:35	41.1	41.1	41.1	64	29.9	0	4	90	0.00	29.688 
07:40	40.9	40.9	40.9	63	29.3	0	2	90	0.00	29.688 
07:45	40.9	40.9	40.9	63	29.3	1	3	90	0.00	29.700 
07:50	40.8	40.8	40.8	62	28.8	2	9	90	0.00	29.700 
07:55	40.8	40.8	40.8	58	27.2	2	9	112	0.00	29.700 
08:00	40.6	40.6	40.6	58	27.0	2	7	90	0.00	29.712 
08:05	40.5	40.5	40.5	58	26.9	2	7	90	0.00	29.712 
08:10	40.6	40.6	40.6	57	26.6	2	9	90	0.00	29.712 
08:15	40.9	40.9	40.9	56	26.4	1	6	90	0.00	29.729 
08:20	40.9	40.9	40.9	52	24.6	3	10	90	0.00	29.729 
08:25	40.9	37.5	40.9	47	22.2	5	15	90	0.00	29.729 
08:30	41.5	41.5	41.5	48	23.3	3	13	45	0.00	29.739 
08:35	41.9	41.9	41.9	48	23.7	3	13	68	0.00	29.739 
08:40	42.2	39.9	42.2	51	25.4	4	9	112	0.00	29.739 
08:45	42.3	42.3	42.3	49	24.5	3	12	112	0.00	29.746 
08:50	42.5	42.5	42.5	48	24.2	3	12	135	0.00	29.746 
08:55	42.3	40.0	42.3	48	24.0	4	10	112	0.00	29.746 
09:00	42.3	40.0	42.3	48	24.0	4	16	90	0.00	29.753 
09:05	42.3	40.0	42.3	50	25.0	4	11	112	0.00	29.753 
09:10	42.6	42.6	42.6	50	25.3	3	7	90	0.00	29.753 
09:15	42.9	40.7	42.9	49	25.1	4	10	112	0.00	29.762 
09:20	42.8	42.8	42.8	48	24.5	3	9	90	0.00	29.762 
09:25	43.1	43.1	43.1	48	24.8	3	12	90	0.00	29.762 
09:30	43.2	43.2	43.2	48	24.9	3	9	90	0.00	29.764 
09:35	43.2	43.2	43.2	47	24.3	3	11	112	0.00	29.764 
09:40	43.2	43.2	43.2	48	24.9	3	7	112	0.00	29.764 
09:45	43.1	40.9	43.1	49	25.3	4	13	112	0.00	29.768 
09:50	43.2	41.0	43.2	47	24.3	4	11	90	0.00	29.768 
09:55	43.3	43.3	43.3	47	24.4	3	7	90	0.00	29.768 
10:00	43.3	41.1	43.3	48	24.9	4	12	112	0.00	29.773 
10:05	43.5	41.4	43.5	47	24.6	4	10	112	0.00	29.773 
10:10	43.3	39.7	43.3	46	23.9	6	13	90	0.00	29.773 
10:15	43.8	41.7	43.8	48	25.4	4	11	90	0.00	29.773 
10:20	43.9	41.1	43.9	48	25.5	5	12	90	0.00	29.773 
10:25	44.3	44.3	44.3	49	26.4	3	9	112	0.00	29.773 
10:30	44.6	44.6	44.6	48	26.1	3	12	90	0.00	29.773 
10:35	45.2	43.3	45.2	48	26.7	4	11	90	0.00	29.773 
10:40	46.0	46.0	46.0	46	26.4	2	6	45	0.00	29.773 
10:45	46.1	46.1	46.1	46	26.5	3	10	90	0.00	29.777 
10:50	46.2	46.2	46.2	47	27.1	2	7	112	0.00	29.777 
10:55	46.4	44.7	46.4	42	24.6	4	11	112	0.00	29.777 
11:00	46.4	46.4	46.4	48	27.8	3	9	90	0.00	29.779 
11:05	46.4	46.4	46.4	45	26.2	3	11	112	0.00	29.779 
11:10	47.1	47.1	47.1	46	27.4	2	5	45	0.00	29.779 
11:15	47.0	44.1	47.0	43	25.7	6	15	112	0.00	29.783 
11:20	47.3	47.3	47.3	49	29.1	1	5	90	0.00	29.783 
11:25	47.4	45.9	47.4	43	26.0	4	11	112	0.00	29.783 
11:30	47.9	47.9	47.9	46	28.1	2	6	90	0.00	29.790 
11:35	48.6	48.6	48.6	46	28.8	3	10	90	0.00	29.790 
11:40	48.5	47.1	48.5	41	25.9	4	12	90	0.00	29.790 
11:45	48.0	45.9	48.0	44	27.1	5	13	112	0.00	29.794 
11:50	47.4	44.6	47.4	39	23.7	6	14	112	0.00	29.794 
11:55	47.7	46.2	47.7	42	25.7	4	14	112	0.00	29.794 
12:00	48.5	48.5	48.5	46	28.7	1	6	68	0.00	29.798 
12:05	48.9	48.9	48.9	47	29.6	1	6	45	0.00	29.798 
12:10	49.1	49.1	49.1	45	28.7	2	6	90	0.00	29.798 
12:15	49.2	49.2	49.2	46	29.3	1	7	0	0.00	29.802 
12:20	49.8	49.8	49.8	41	27.1	3	9	112	0.00	29.802 
12:25	49.8	49.8	49.8	43	28.2	2	9	180	0.00	29.802 
12:30	49.9	49.9	49.9	43	28.3	2	9	112	0.00	29.801 
12:35	50.2	50.2	50.2	44	29.1	1	6	135	0.00	29.801 
12:40	50.2	50.2	50.2	42	28.0	3	10	112	0.00	29.801 
12:45	50.4	50.4	50.4	43	28.8	1	6	90	0.00	29.801 
12:50	50.7	50.7	50.7	46	30.7	1	4	90	0.00	29.801 
12:55	50.5	50.5	50.5	44	29.4	2	8	45	0.00	29.801 
13:00	50.7	50.7	50.7	45	30.1	1	5	22	0.00	29.800 
13:05	51.1	51.1	51.1	45	30.5	2	9	90	0.00	29.800 
13:10	51.6	51.6	51.6	41	28.7	2	6	45	0.00	29.800 
13:15	51.6	51.6	51.6	46	31.5	2	6	112	0.00	29.797 
13:20	51.4	51.4	51.4	41	28.5	2	6	68	0.00	29.797 
13:25	51.7	51.7	51.7	44	30.5	2	7	68	0.00	29.797 
13:30	52.2	52.2	52.2	43	30.4	1	3	68	0.00	29.796 
13:35	52.0	52.0	52.0	40	28.4	2	9	68	0.00	29.796 
13:40	52.2	52.2	52.2	39	28.0	2	6	135	0.00	29.796 
13:45	52.6	52.6	52.6	41	29.6	1	5	68	0.00	29.796 
13:50	52.8	52.8	52.8	42	30.3	1	6	90	0.00	29.796 
13:55	53.1	53.1	53.1	46	32.9	2	10	90	0.00	29.796 
14:00	52.9	52.9	52.9	37	27.3	2	7	90	0.00	29.795 
14:05	53.1	53.1	53.1	40	29.4	1	5	112	0.00	29.795 
14:10	53.2	53.2	53.2	38	28.3	2	6	112	0.00	29.795 
14:15	52.9	52.9	52.9	39	28.6	1	5	112	0.00	29.794 
14:20	53.1	53.1	53.1	41	30.0	1	4	112	0.00	29.794 
14:25	53.2	53.2	53.2	36	26.9	1	5	135	0.00	29.794 
14:30	53.2	53.2	53.2	42	30.7	1	4	45	0.00	29.792 
14:35	53.6	53.6	53.6	35	26.6	2	4	112	0.00	29.792 
14:40	53.9	53.9	53.9	39	29.5	1	3	338	0.00	29.792 
14:45	53.9	53.9	53.9	36	27.6	1	5	90	0.00	29.791 
14:50	53.9	53.9	53.9	35	26.9	1	3	68	0.00	29.791 
14:55	54.2	54.2	54.2	40	30.4	1	4	68	0.00	29.791 
15:00	54.5	54.5	54.5	40	30.7	1	2	68	0.00	29.787 
15:05	54.8	54.8	54.8	39	30.3	2	11	68	0.00	29.787 
15:10	54.8	54.8	54.8	40	30.9	1	4	315	0.00	29.787 
15:15	55.0	55.0	55.0	39	30.5	1	5	112	0.00	29.790 
15:20	55.1	55.1	55.1	37	29.3	2	9	90	0.00	29.790 
15:25	55.1	55.1	55.1	40	31.2	1	6	90	0.00	29.790 
15:30	55.0	55.0	55.0	40	31.1	1	7	270	0.00	29.788 
15:35	55.3	55.3	55.3	36	28.8	1	4	0	0.00	29.788 
15:40	55.4	55.4	55.4	37	29.6	1	5	68	0.00	29.788 
15:45	56.0	56.0	56.0	38	30.8	1	4	68	0.00	29.786 
15:50	56.0	56.0	56.0	34	28.0	1	5	90	0.00	29.786 
15:55	55.6	55.6	55.6	36	29.1	2	5	270	0.00	29.786 
16:00	55.4	55.4	55.4	37	29.6	1	3	0	0.00	29.786 
16:05	55.6	55.6	55.6	34	27.7	1	3	22	0.00	29.786 
16:10	55.9	55.9	55.9	36	29.3	1	4	22	0.00	29.786 
16:15	56.2	56.2	56.2	39	31.6	1	3	22	0.00	29.786 
16:20	56.3	56.3	56.3	33	27.6	1	3	22	0.00	29.786 
16:25	56.0	56.0	56.0	31	25.8	1	4	338	0.00	29.786 
16:30	56.2	56.2	56.2	35	28.9	1	3	0	0.00	29.787 
16:35	56.5	56.5	56.5	33	27.7	1	5	68	0.00	29.787 
16:40	56.6	56.6	56.6	35	29.3	1	7	68	0.00	29.787 
16:45	57.0	57.0	57.0	37	31.0	0	3	135	0.00	29.784 
16:50	56.7	56.7	56.7	30	25.6	1	3	292	0.00	29.784 
16:55	56.3	56.3	56.3	32	26.8	1	3	338	0.00	29.784 
17:00	56.2	56.2	56.2	34	28.2	1	5	22	0.00	29.786 
17:05	56.2	56.2	56.2	34	28.2	1	3	112	0.00	29.786 
17:10	56.3	56.3	56.3	35	29.0	1	5	22	0.00	29.786 
17:15	56.2	56.2	56.2	34	28.2	1	2	90	0.00	29.790 
17:20	56.2	56.2	56.2	36	29.6	1	3	90	0.00	29.790 
17:25	55.9	55.9	55.9	33	27.2	2	5	292	0.00	29.790 
17:30	55.9	55.9	55.9	33	27.2	1	3	68	0.00	29.791 
17:35	55.9	55.9	55.9	32	26.5	1	2	45	0.00	29.791 
17:40	55.9	55.9	55.9	33	27.2	0	2	45	0.00	29.791 
17:45	56.0	56.0	56.0	33	27.3	1	3	292	0.00	29.796 
17:50	56.2	56.2	56.2	33	27.5	0	2	292	0.00	29.796 
17:55	56.0	56.0	56.0	33	27.3	1	4	292	0.00	29.796 
18:00	55.9	55.9	55.9	37	30.0	1	4	68	0.00	29.800 
18:05	55.7	55.7	55.7	33	27.0	1	3	315	0.00	29.800 
18:10	55.4	55.4	55.4	35	28.2	1	4	45	0.00	29.800 
18:15	55.4	55.4	55.4	34	27.5	1	3	0	0.00	29.804 
18:20	55.1	55.1	55.1	37	29.3	1	4	22	0.00	29.804 
18:25	55.3	55.3	55.3	36	28.8	1	5	270	0.00	29.804 
18:30	55.0	55.0	55.0	35	27.9	1	4	45	0.00	29.806 
18:35	54.7	54.7	54.7	39	30.2	0	1	45	0.00	29.806 
18:40	54.7	54.7	54.7	37	28.9	0	1	45	0.00	29.806 
18:45	54.8	54.8	54.8	37	29.0	0	3	292	0.00	29.807 
18:50	55.1	55.1	55.1	37	29.3	1	3	292	0.00	29.807 
18:55	55.1	55.1	55.1	36	28.6	1	3	315	0.00	29.807 
19:00	55.1	55.1	55.1	36	28.6	1	3	315	0.00	29.811 
19:05	54.8	54.8	54.8	35	27.7	1	4	315	0.00	29.811 
19:10	54.7	54.7	54.7	35	27.6	0	1	270	0.00	29.811 
19:15	54.7	54.7	54.7	35	27.6	0	6	270	0.00	29.817 
19:20	54.4	54.4	54.4	35	27.3	1	4	45	0.00	29.817 
19:25	54.4	54.4	54.4	36	28.0	0	3	270	0.00	29.817 
19:30	54.2	54.2	54.2	36	27.8	0	2	270	0.00	29.822 
19:35	54.1	54.1	54.1	35	27.1	0	2	292	0.00	29.822 
19:40	53.9	53.9	53.9	33	25.5	1	4	22	0.00	29.822 
19:45	53.6	53.6	53.6	34	25.9	1	2	315	0.00	29.824 
19:50	53.5	53.5	53.5	35	26.5	0	2	315	0.00	29.824 
19:55	53.2	53.2	53.2	35	26.3	0	2	315	0.00	29.824 
20:00	53.1	53.1	53.1	36	26.9	0	2	315	0.00	29.827 
20:05	52.9	52.9	52.9	36	26.7	0	1	315	0.00	29.827 
20:10	52.8	52.8	52.8	37	27.3	0	1	315	0.00	29.827 
20:15	52.5	52.5	52.5	36	26.3	0	2	315	0.00	29.833 
20:20	52.0	52.0	52.0	38	27.2	0	0	---	0.00	29.833 
20:25	51.6	51.6	51.6	39	27.5	0	0	---	0.00	29.833 
20:30	51.1	51.1	51.1	39	27.0	0	0	---	0.00	29.840 
20:35	50.8	50.8	50.8	39	26.7	0	0	---	0.00	29.840 
20:40	50.4	50.4	50.4	39	26.4	0	0	---	0.00	29.840 
20:45	49.9	49.9	49.9	41	27.1	0	0	---	0.00	29.841 
20:50	49.5	49.5	49.5	42	27.4	0	0	---	0.00	29.841 
20:55	49.1	49.1	49.1	42	27.0	0	0	---	0.00	29.841 
21:00	48.6	48.6	48.6	44	27.7	0	0	---	0.00	29.846 
21:05	48.2	48.2	48.2	45	27.9	0	0	---	0.00	29.846 
21:10	47.7	47.7	47.7	46	27.9	0	0	---	0.00	29.846 
21:15	47.4	47.4	47.4	46	27.7	0	0	---	0.00	29.853 
21:20	46.8	46.8	46.8	50	29.2	0	0	---	0.00	29.853 
21:25	46.2	46.2	46.2	51	29.1	0	0	---	0.00	29.853 
21:30	45.8	45.8	45.8	52	29.2	0	0	---	0.00	29.859 
21:35	45.4	45.4	45.4	55	30.2	0	0	---	0.00	29.859 
21:40	44.9	44.9	44.9	57	30.6	0	1	315	0.00	29.859 
21:45	45.4	45.4	45.4	54	29.7	0	1	315	0.00	29.872 
21:50	46.1	46.1	46.1	54	30.4	0	1	315	0.00	29.872 
21:55	46.5	46.5	46.5	53	30.3	0	1	315	0.00	29.872 
22:00	46.8	46.8	46.8	53	30.6	0	1	315	0.00	29.873 
22:05	47.0	47.0	47.0	53	30.8	0	1	315	0.00	29.873 
22:10	46.8	46.8	46.8	54	31.0	0	1	315	0.00	29.873 
22:15	46.7	46.7	46.7	54	30.9	0	1	315	0.00	29.874 
22:20	46.5	46.5	46.5	55	31.2	0	1	315	0.00	29.874 
22:25	46.5	46.5	46.5	55	31.2	0	2	315	0.00	29.874 
22:30	46.4	46.4	46.4	55	31.1	0	1	315	0.00	29.882 
22:35	46.2	46.2	46.2	54	30.5	0	1	315	0.00	29.882 
22:40	46.2	46.2	46.2	54	30.5	0	2	315	0.00	29.882 
22:45	46.1	46.1	46.1	53	29.9	1	2	315	0.00	29.887 
22:50	45.8	45.8	45.8	54	30.1	0	1	315	0.00	29.887 
22:55	45.7	45.7	45.7	54	30.0	0	2	315	0.00	29.887 
23:00	45.4	45.4	45.4	55	30.2	0	1	315	0.00	29.889 
23:05	45.1	45.1	45.1	55	29.9	0	2	315	0.00	29.889 
23:10	44.9	44.9	44.9	56	30.2	0	1	315	0.00	29.889 
23:15	44.8	44.8	44.8	56	30.1	0	1	315	0.00	29.889 
23:20	44.5	44.5	44.5	57	30.2	0	1	315	0.00	29.889 
23:25	44.2	44.2	44.2	57	29.9	0	1	315	0.00	29.889 
23:30	44.1	44.1	44.1	58	30.3	0	1	315	0.00	29.891 
23:35	43.8	43.8	43.8	58	30.0	0	1	315	0.00	29.891 
23:40	43.6	43.6	43.6	58	29.8	0	1	315	0.00	29.891 
23:45	43.3	43.3	43.3	58	29.5	0	1	315	0.00	29.890 
23:50	43.2	43.2	43.2	58	29.4	0	1	315	0.00	29.890 
23:55	42.9	42.9	42.9	59	29.6	0	0	---	0.00	29.890 

CoCoRaHS
IN-AL-39
A2 Web Hosting
Creative Commons License
GoDaddy
search engine by freefind advanced

loaded 2018-11-18 12:12:57 • last modified 2010-11-18 10:43:29
Privacy PolicyDisclaimer
• wx.awcolley.com is powered by PmWiki v.2002016 •
• all content (unless otherwise noted) © 2018 A W Colley